createdAt,value
2019-01-30T00:00:40.270Z,11.10
2019-01-30T00:01:41.293Z,14.55
2019-01-30T00:02:42.299Z,11.43
2019-01-30T00:03:43.316Z,15.85
2019-01-30T00:04:44.338Z,12.28
2019-01-30T00:05:45.673Z,14.25
2019-01-30T00:06:46.712Z,13.22
2019-01-30T00:08:01.299Z,15.45
2019-01-30T00:09:05.628Z,15.30
2019-01-30T00:10:07.937Z,13.10
2019-01-30T00:11:08.956Z,15.55
2019-01-30T00:12:09.984Z,14.33
2019-01-30T00:13:10.998Z,13.32
2019-01-30T00:14:11.999Z,13.08
2019-01-30T00:15:13.212Z,13.78
2019-01-30T00:16:14.233Z,13.60
2019-01-30T00:17:15.264Z,10.82
2019-01-30T00:18:16.379Z,14.58
2019-01-30T00:19:17.400Z,11.15
2019-01-30T00:20:18.429Z,15.43
2019-01-30T00:21:19.486Z,11.38
2019-01-30T00:22:20.568Z,13.53
2019-01-30T00:23:21.577Z,13.75
2019-01-30T00:24:22.620Z,12.20
2019-01-30T00:25:24.024Z,14.07
2019-01-30T00:26:25.252Z,15.38
2019-01-30T00:27:26.265Z,15.35
2019-01-30T00:28:27.293Z,13.13
2019-01-30T00:29:28.308Z,12.18
2019-01-30T00:30:29.623Z,15.45
2019-01-30T00:31:30.645Z,11.43
2019-01-30T00:32:31.656Z,14.10
2019-01-30T00:33:32.681Z,12.90
2019-01-30T00:34:33.709Z,14.87
2019-01-30T00:35:34.716Z,12.45
2019-01-30T00:36:35.752Z,12.03
2019-01-30T00:37:36.753Z,10.72
2019-01-30T00:38:37.763Z,13.58
2019-01-30T00:39:38.768Z,12.82
2019-01-30T00:40:39.799Z,11.48
2019-01-30T00:41:41.653Z,12.13
2019-01-30T00:42:42.665Z,11.90
2019-01-30T00:43:43.681Z,12.43
2019-01-30T00:44:44.696Z,14.10
2019-01-30T00:45:45.725Z,10.82
2019-01-30T00:46:46.740Z,13.30
2019-01-30T00:47:47.903Z,10.38
2019-01-30T00:48:49.096Z,13.48
2019-01-30T00:49:50.103Z,13.00
2019-01-30T00:50:51.121Z,13.50
2019-01-30T00:51:52.210Z,13.10
2019-01-30T00:52:53.244Z,13.05
2019-01-30T00:53:54.276Z,13.60
2019-01-30T00:54:55.291Z,11.57
2019-01-30T00:55:56.313Z,13.20
2019-01-30T00:56:57.344Z,10.58
2019-01-30T00:57:58.355Z,13.68
2019-01-30T00:58:59.369Z,12.15
2019-01-30T01:00:00.383Z,14.15
2019-01-30T01:01:01.387Z,13.50
2019-01-30T01:02:02.832Z,15.15
2019-01-30T01:03:04.044Z,13.88
2019-01-30T01:04:05.058Z,12.50
2019-01-30T01:05:06.272Z,13.08
2019-01-30T01:06:07.279Z,14.90
2019-01-30T01:07:08.308Z,16.10
2019-01-30T01:08:09.440Z,13.38
2019-01-30T01:09:10.447Z,15.70
2019-01-30T01:10:15.269Z,16.40
2019-01-30T01:11:16.285Z,14.75
2019-01-30T01:12:17.440Z,12.25
2019-01-30T01:13:18.436Z,11.95
2019-01-30T01:14:19.453Z,14.47
2019-01-30T01:15:20.471Z,15.03
2019-01-30T01:16:21.479Z,15.80
2019-01-30T01:17:22.540Z,15.48
2019-01-30T01:18:23.553Z,15.18
2019-01-30T01:19:24.559Z,14.33
2019-01-30T01:20:25.576Z,17.42
2019-01-30T01:21:26.692Z,12.58
2019-01-30T01:22:27.716Z,15.60
2019-01-30T01:23:28.735Z,12.37
2019-01-30T01:24:29.752Z,14.58
2019-01-30T01:25:30.768Z,12.63
2019-01-30T01:26:31.789Z,17.48
2019-01-30T01:27:32.831Z,13.28
2019-01-30T01:28:33.952Z,15.63
2019-01-30T01:29:34.959Z,14.78
2019-01-30T01:30:36.415Z,15.55
2019-01-30T01:31:37.440Z,14.25
2019-01-30T01:32:38.464Z,12.50
2019-01-30T01:33:39.481Z,15.58
2019-01-30T01:34:40.592Z,11.33
2019-01-30T01:35:41.604Z,15.72
2019-01-30T01:36:42.617Z,11.40
2019-01-30T01:37:43.643Z,14.07
2019-01-30T01:38:44.677Z,14.33
2019-01-30T01:39:45.680Z,14.47
2019-01-30T01:40:46.737Z,12.63
2019-01-30T01:41:47.752Z,10.53
2019-01-30T01:42:48.899Z,15.18
2019-01-30T01:43:49.917Z,12.55
2019-01-30T01:44:50.935Z,14.55
2019-01-30T01:45:52.289Z,11.15
2019-01-30T01:46:53.486Z,12.37
2019-01-30T01:47:54.526Z,14.90
2019-01-30T01:48:55.529Z,13.48
2019-01-30T01:49:56.540Z,13.78
2019-01-30T01:50:57.548Z,10.50
2019-01-30T01:51:58.860Z,15.03
2019-01-30T01:52:59.892Z,14.20
2019-01-30T01:54:00.908Z,16.32
2019-01-30T01:55:03.028Z,15.50
2019-01-30T01:56:04.045Z,14.70
2019-01-30T01:57:05.051Z,12.68
2019-01-30T01:58:06.079Z,16.50
2019-01-30T01:59:07.096Z,14.13
2019-01-30T02:00:16.628Z,15.68
2019-01-30T02:01:17.643Z,14.58
2019-01-30T02:02:18.656Z,14.93
2019-01-30T02:03:19.686Z,15.18
2019-01-30T02:04:20.696Z,15.75
2019-01-30T02:05:22.564Z,15.45
2019-01-30T02:06:23.677Z,14.70
2019-01-30T02:07:24.692Z,14.47
2019-01-30T02:08:25.763Z,14.33
2019-01-30T02:09:26.780Z,16.40
2019-01-30T02:10:28.188Z,17.42
2019-01-30T02:11:29.199Z,14.23
2019-01-30T02:12:30.215Z,16.05
2019-01-30T02:13:31.282Z,13.95
2019-01-30T02:14:32.335Z,14.73
2019-01-30T02:15:33.347Z,15.63
2019-01-30T02:16:34.369Z,15.65
2019-01-30T02:17:35.375Z,16.30
2019-01-30T02:18:36.405Z,15.30
2019-01-30T02:19:37.420Z,19.85
2019-01-30T02:20:38.800Z,14.40
2019-01-30T02:21:39.831Z,15.08
2019-01-30T02:22:40.864Z,15.85
2019-01-30T02:23:41.884Z,14.25
2019-01-30T02:24:42.901Z,17.48
2019-01-30T02:25:43.908Z,13.95
2019-01-30T02:26:44.925Z,14.40
2019-01-30T02:27:45.940Z,13.85
2019-01-30T02:28:46.979Z,14.80
2019-01-30T02:29:47.989Z,12.35
2019-01-30T02:30:49.000Z,15.15
2019-01-30T02:31:50.016Z,13.60
2019-01-30T02:32:51.536Z,17.75
2019-01-30T02:33:52.686Z,17.52
2019-01-30T02:34:53.772Z,14.80
2019-01-30T02:35:54.867Z,16.20
2019-01-30T02:36:55.955Z,12.63
2019-01-30T02:37:56.971Z,17.35
2019-01-30T02:38:57.992Z,14.83
2019-01-30T02:39:59.010Z,15.35
2019-01-30T02:41:00.335Z,14.55
2019-01-30T02:42:01.342Z,13.72
2019-01-30T02:43:02.349Z,15.00
2019-01-30T02:44:03.478Z,14.85
2019-01-30T02:45:07.900Z,15.03
2019-01-30T02:46:08.916Z,15.72
2019-01-30T02:47:09.928Z,11.97
2019-01-30T02:48:10.940Z,17.40
2019-01-30T02:49:11.961Z,12.20
2019-01-30T02:50:14.980Z,13.10
2019-01-30T02:51:16.006Z,14.90
2019-01-30T02:52:17.011Z,14.05
2019-01-30T02:53:18.025Z,13.43
2019-01-30T02:54:19.047Z,14.50
2019-01-30T02:55:20.364Z,15.63
2019-01-30T02:56:21.371Z,19.40
2019-01-30T02:57:22.383Z,13.38
2019-01-30T02:58:23.504Z,14.73
2019-01-30T02:59:24.528Z,12.37
2019-01-30T03:00:58.527Z,12.07
2019-01-30T03:01:53.164Z,13.90
2019-01-30T03:02:54.157Z,14.95
2019-01-30T03:03:55.245Z,15.80
2019-01-30T03:04:56.340Z,13.45
2019-01-30T03:05:57.360Z,12.75
2019-01-30T03:06:58.472Z,10.65
2019-01-30T03:07:59.503Z,15.70
2019-01-30T03:09:00.697Z,11.70
2019-01-30T03:10:03.549Z,16.37
2019-01-30T03:11:04.563Z,13.32
2019-01-30T03:12:05.573Z,13.85
2019-01-30T03:13:06.576Z,16.05
2019-01-30T03:14:07.595Z,13.15
2019-01-30T03:15:11.008Z,16.45
2019-01-30T03:16:12.339Z,19.98
2019-01-30T03:17:13.347Z,16.32
2019-01-30T03:18:14.376Z,17.02
2019-01-30T03:19:15.389Z,19.62
2019-01-30T03:20:24.516Z,14.43
2019-01-30T03:21:25.527Z,14.10
2019-01-30T03:22:26.533Z,14.95
2019-01-30T03:23:27.548Z,16.97
2019-01-30T03:24:28.573Z,19.77
2019-01-30T03:25:29.811Z,12.50
2019-01-30T03:26:30.820Z,16.65
2019-01-30T03:27:31.838Z,14.28
2019-01-30T03:28:32.877Z,16.87
2019-01-30T03:29:33.910Z,15.60
2019-01-30T03:30:35.023Z,15.68
2019-01-30T03:31:36.039Z,17.32
2019-01-30T03:32:37.156Z,15.00
2019-01-30T03:33:38.155Z,20.95
2019-01-30T03:34:39.224Z,15.65
2019-01-30T03:35:40.303Z,15.40
2019-01-30T03:36:44.295Z,16.25
2019-01-30T03:37:45.425Z,16.80
2019-01-30T03:38:46.428Z,19.75
2019-01-30T03:39:47.498Z,17.40
2019-01-30T03:40:48.512Z,19.70
2019-01-30T03:41:49.580Z,15.68
2019-01-30T03:42:50.703Z,16.75
2019-01-30T03:43:51.707Z,13.88
2019-01-30T03:44:52.749Z,17.73
2019-01-30T03:45:53.763Z,14.55
2019-01-30T03:46:54.797Z,15.63
2019-01-30T03:47:55.814Z,15.85
2019-01-30T03:48:56.883Z,17.67
2019-01-30T03:49:57.912Z,17.57
2019-01-30T03:50:58.924Z,15.28
2019-01-30T03:51:59.936Z,17.17
2019-01-30T03:53:00.941Z,17.82
2019-01-30T03:54:01.962Z,18.45
2019-01-30T03:55:05.588Z,18.48
2019-01-30T03:56:06.719Z,15.15
2019-01-30T03:57:07.724Z,20.10
2019-01-30T03:58:08.745Z,17.80
2019-01-30T03:59:09.753Z,15.80
2019-01-30T04:00:14.484Z,17.30
2019-01-30T04:01:26.260Z,15.00
2019-01-30T04:02:18.399Z,14.30
2019-01-30T04:03:19.416Z,17.42
2019-01-30T04:04:20.425Z,16.25
2019-01-30T04:05:22.048Z,17.73
2019-01-30T04:06:23.106Z,17.73
2019-01-30T04:07:24.101Z,17.90
2019-01-30T04:08:25.125Z,17.27
2019-01-30T04:09:26.134Z,16.10
2019-01-30T04:10:27.154Z,18.50
2019-01-30T04:11:28.169Z,16.97
2019-01-30T04:12:29.179Z,18.45
2019-01-30T04:13:30.196Z,20.27
2019-01-30T04:14:31.212Z,14.55
2019-01-30T04:15:32.283Z,19.10
2019-01-30T04:16:33.288Z,17.82
2019-01-30T04:17:34.303Z,18.50
2019-01-30T04:18:35.308Z,14.83
2019-01-30T04:19:36.324Z,15.95
2019-01-30T04:20:37.346Z,15.98
2019-01-30T04:21:38.377Z,19.25
2019-01-30T04:22:39.387Z,14.33
2019-01-30T04:23:40.418Z,17.92
2019-01-30T04:24:41.431Z,17.95
2019-01-30T04:25:42.464Z,17.87
2019-01-30T04:26:43.492Z,19.05
2019-01-30T04:27:44.515Z,14.03
2019-01-30T04:28:45.524Z,16.27
2019-01-30T04:29:46.531Z,16.00
2019-01-30T04:30:47.560Z,17.80
2019-01-30T04:31:48.573Z,16.80
2019-01-30T04:32:49.600Z,20.12
2019-01-30T04:33:50.602Z,15.35
2019-01-30T04:34:51.606Z,19.50
2019-01-30T04:35:52.659Z,15.63
2019-01-30T04:36:53.743Z,17.65
2019-01-30T04:37:54.773Z,11.78
2019-01-30T04:38:55.783Z,15.32
2019-01-30T04:39:56.797Z,13.38
2019-01-30T04:40:57.958Z,15.43
2019-01-30T04:41:58.989Z,15.83
2019-01-30T04:42:59.996Z,17.65
2019-01-30T04:44:01.017Z,19.00
2019-01-30T04:45:04.741Z,13.65
2019-01-30T04:46:05.773Z,13.75
2019-01-30T04:47:06.792Z,17.98
2019-01-30T04:48:07.818Z,16.17
2019-01-30T04:49:08.856Z,13.50
2019-01-30T04:50:09.990Z,18.77
2019-01-30T04:51:11.007Z,13.95
2019-01-30T04:52:12.028Z,16.42
2019-01-30T04:53:13.149Z,16.75
2019-01-30T04:54:14.161Z,14.00
2019-01-30T04:55:15.372Z,16.75
2019-01-30T04:56:16.403Z,15.53
2019-01-30T04:57:17.516Z,18.27
2019-01-30T04:58:18.531Z,19.23
2019-01-30T04:59:19.553Z,16.42
2019-01-30T05:00:23.588Z,16.97
2019-01-30T05:01:24.620Z,19.67
2019-01-30T05:02:25.636Z,14.68
2019-01-30T05:03:26.663Z,17.82
2019-01-30T05:04:27.659Z,16.20
2019-01-30T05:05:28.669Z,14.93
2019-01-30T05:06:29.688Z,15.08
2019-01-30T05:07:30.697Z,17.20
2019-01-30T05:08:31.726Z,14.25
2019-01-30T05:09:32.750Z,14.50
2019-01-30T05:10:33.865Z,16.40
2019-01-30T05:11:34.880Z,14.60
2019-01-30T05:12:35.917Z,16.02
2019-01-30T05:13:36.920Z,12.13
2019-01-30T05:14:37.955Z,17.80
2019-01-30T05:15:38.974Z,15.85
2019-01-30T05:16:39.995Z,15.05
2019-01-30T05:17:41.004Z,14.00
2019-01-30T05:18:42.032Z,16.77
2019-01-30T05:19:43.052Z,15.93
2019-01-30T05:20:44.053Z,16.45
2019-01-30T05:21:45.909Z,14.98
2019-01-30T05:22:46.953Z,15.98
2019-01-30T05:23:48.044Z,15.40
2019-01-30T05:24:49.050Z,14.58
2019-01-30T05:25:50.065Z,17.55
2019-01-30T05:26:51.084Z,13.83
2019-01-30T05:27:52.088Z,14.90
2019-01-30T05:28:53.164Z,15.43
2019-01-30T05:29:54.200Z,12.03
2019-01-30T05:30:55.225Z,14.80
2019-01-30T05:32:01.287Z,15.05
2019-01-30T05:32:59.185Z,15.55
2019-01-30T05:34:00.245Z,16.42
2019-01-30T05:35:01.264Z,14.30
2019-01-30T05:36:02.689Z,16.10
2019-01-30T05:37:03.713Z,19.98
2019-01-30T05:38:04.823Z,15.05
2019-01-30T05:39:06.854Z,18.80
2019-01-30T05:40:14.013Z,17.02
2019-01-30T05:41:15.037Z,17.30
2019-01-30T05:42:16.051Z,16.97
2019-01-30T05:43:17.100Z,17.30
2019-01-30T05:44:18.125Z,14.58
2019-01-30T05:45:19.271Z,18.05
2019-01-30T05:46:20.300Z,17.07
2019-01-30T05:47:21.334Z,14.85
2019-01-30T05:48:22.355Z,14.95
2019-01-30T05:49:23.496Z,16.93
2019-01-30T05:50:24.494Z,16.12
2019-01-30T05:51:25.508Z,15.48
2019-01-30T05:52:26.533Z,13.58
2019-01-30T05:53:27.538Z,15.53
2019-01-30T05:54:28.554Z,14.87
2019-01-30T05:55:29.559Z,15.08
2019-01-30T05:56:30.576Z,17.07
2019-01-30T05:57:31.609Z,14.90
2019-01-30T05:58:32.628Z,18.98
2019-01-30T05:59:33.642Z,13.88
2019-01-30T06:00:36.776Z,15.05
2019-01-30T06:01:37.809Z,16.65
2019-01-30T06:02:38.839Z,13.85
2019-01-30T06:03:39.860Z,19.25
2019-01-30T06:04:40.872Z,13.38
2019-01-30T06:05:43.114Z,15.65
2019-01-30T06:06:44.443Z,18.27
2019-01-30T06:07:45.480Z,14.80
2019-01-30T06:08:46.495Z,13.95
2019-01-30T06:09:47.506Z,14.20
2019-01-30T06:10:48.524Z,13.43
2019-01-30T06:11:49.554Z,15.98
2019-01-30T06:12:50.585Z,14.30
2019-01-30T06:13:51.614Z,13.78
2019-01-30T06:14:52.625Z,14.85
2019-01-30T06:15:53.736Z,18.27
2019-01-30T06:16:54.766Z,17.12
2019-01-30T06:17:55.832Z,15.88
2019-01-30T06:18:56.843Z,17.52
2019-01-30T06:19:57.857Z,13.90
2019-01-30T06:20:58.874Z,15.13
2019-01-30T06:21:59.896Z,16.70
2019-01-30T06:23:01.808Z,14.73
2019-01-30T06:24:03.246Z,15.70
2019-01-30T06:25:06.768Z,17.65
2019-01-30T06:26:07.795Z,15.60
2019-01-30T06:27:08.812Z,17.80
2019-01-30T06:28:09.847Z,15.13
2019-01-30T06:29:10.864Z,17.17
2019-01-30T06:30:15.083Z,15.30
2019-01-30T06:31:16.095Z,15.25
2019-01-30T06:32:21.949Z,12.78
2019-01-30T06:33:20.032Z,15.00
2019-01-30T06:34:21.045Z,15.32
2019-01-30T06:35:22.368Z,13.05
2019-01-30T06:36:23.525Z,15.03
2019-01-30T06:37:24.655Z,15.35
2019-01-30T06:38:25.829Z,14.80
2019-01-30T06:39:26.904Z,17.45
2019-01-30T06:40:30.013Z,16.20
2019-01-30T06:41:31.082Z,16.67
2019-01-30T06:42:32.137Z,17.32
2019-01-30T06:43:33.155Z,14.40
2019-01-30T06:44:34.180Z,13.80
2019-01-30T06:45:35.228Z,15.90
2019-01-30T06:46:36.276Z,16.40
2019-01-30T06:47:37.403Z,15.00
2019-01-30T06:48:38.416Z,12.15
2019-01-30T06:49:39.497Z,18.23
2019-01-30T06:50:40.503Z,16.80
2019-01-30T06:51:41.523Z,17.02
2019-01-30T06:52:42.559Z,12.85
2019-01-30T06:53:43.588Z,15.15
2019-01-30T06:54:44.609Z,15.38
2019-01-30T06:55:45.624Z,15.45
2019-01-30T06:56:46.704Z,11.55
2019-01-30T06:57:47.719Z,16.50
2019-01-30T06:58:48.744Z,13.35
2019-01-30T06:59:49.778Z,15.98
2019-01-30T07:00:52.751Z,14.43
2019-01-30T07:01:54.051Z,13.05
2019-01-30T07:02:55.800Z,15.60
2019-01-30T07:03:56.834Z,15.15
2019-01-30T07:04:57.844Z,12.70
2019-01-30T07:05:58.863Z,20.17
2019-01-30T07:06:59.885Z,15.38
2019-01-30T07:08:00.912Z,17.62
2019-01-30T07:09:05.748Z,13.18
2019-01-30T07:10:16.209Z,18.23
2019-01-30T07:11:17.218Z,14.40
2019-01-30T07:12:18.225Z,17.73
2019-01-30T07:13:19.318Z,15.40
2019-01-30T07:14:20.360Z,14.93
2019-01-30T07:15:21.479Z,14.45
2019-01-30T07:16:22.488Z,19.00
2019-01-30T07:17:23.555Z,16.15
2019-01-30T07:18:24.636Z,13.20
2019-01-30T07:19:25.693Z,17.50
2019-01-30T07:20:26.696Z,11.35
2019-01-30T07:21:27.719Z,13.90
2019-01-30T07:22:29.032Z,14.10
2019-01-30T07:23:30.071Z,14.75
2019-01-30T07:24:31.111Z,15.50
2019-01-30T07:25:32.128Z,15.18
2019-01-30T07:26:33.179Z,17.60
2019-01-30T07:27:34.205Z,16.82
2019-01-30T07:28:35.228Z,16.70
2019-01-30T07:29:36.244Z,14.00
2019-01-30T07:30:37.263Z,15.68
2019-01-30T07:31:38.633Z,14.30
2019-01-30T07:32:42.230Z,11.15
2019-01-30T07:33:42.632Z,15.83
2019-01-30T07:34:43.743Z,14.85
2019-01-30T07:35:44.751Z,15.28
2019-01-30T07:36:45.774Z,13.78
2019-01-30T07:37:47.090Z,16.20
2019-01-30T07:38:48.124Z,13.20
2019-01-30T07:39:49.372Z,13.95
2019-01-30T07:40:50.493Z,15.93
2019-01-30T07:41:51.511Z,13.68
2019-01-30T07:42:52.520Z,13.78
2019-01-30T07:43:53.549Z,15.98
2019-01-30T07:44:54.587Z,15.60
2019-01-30T07:45:55.596Z,18.60
2019-01-30T07:46:56.605Z,15.25
2019-01-30T07:47:57.650Z,17.07
2019-01-30T07:48:58.660Z,17.27
2019-01-30T07:49:59.686Z,17.62
2019-01-30T07:51:00.702Z,17.07
2019-01-30T07:52:01.720Z,17.65
2019-01-30T07:53:03.131Z,16.70
2019-01-30T07:54:04.245Z,17.98
2019-01-30T07:55:08.583Z,14.90
2019-01-30T07:56:09.660Z,15.70
2019-01-30T07:57:10.676Z,13.85
2019-01-30T07:58:11.688Z,13.40
2019-01-30T07:59:13.100Z,16.73
2019-01-30T08:00:17.971Z,19.52
2019-01-30T08:01:19.064Z,16.55
2019-01-30T08:02:21.884Z,12.98
2019-01-30T08:03:23.001Z,14.87
2019-01-30T08:04:24.092Z,16.80
2019-01-30T08:05:25.118Z,18.02
2019-01-30T08:06:26.123Z,28.15
2019-01-30T08:07:27.786Z,14.83
2019-01-30T08:08:28.853Z,15.18
2019-01-30T08:09:29.892Z,17.00
2019-01-30T08:10:30.908Z,17.62
2019-01-30T08:11:33.072Z,18.12
2019-01-30T08:12:34.371Z,13.70
2019-01-30T08:13:35.444Z,16.62
2019-01-30T08:14:36.577Z,13.68
2019-01-30T08:15:37.583Z,18.20
2019-01-30T08:16:38.599Z,18.57
2019-01-30T08:17:39.625Z,20.05
2019-01-30T08:18:40.623Z,19.00
2019-01-30T08:19:41.760Z,18.30
2019-01-30T08:20:43.239Z,15.20
2019-01-30T08:21:44.256Z,16.90
2019-01-30T08:22:45.488Z,18.60
2019-01-30T08:23:46.498Z,13.48
2019-01-30T08:24:47.562Z,17.23
2019-01-30T08:25:48.808Z,13.28
2019-01-30T08:26:50.209Z,17.75
2019-01-30T08:27:51.524Z,16.57
2019-01-30T08:28:52.676Z,22.32
2019-01-30T08:29:54.066Z,14.38
2019-01-30T08:30:55.258Z,14.87
2019-01-30T08:31:56.476Z,10.95
2019-01-30T08:33:04.623Z,12.50
2019-01-30T08:34:00.697Z,13.43
2019-01-30T08:35:02.412Z,13.22
2019-01-30T08:36:03.424Z,15.50
2019-01-30T08:37:04.453Z,16.67
2019-01-30T08:38:05.484Z,13.32
2019-01-30T08:39:06.934Z,13.65
2019-01-30T08:40:09.262Z,15.23
2019-01-30T08:41:10.288Z,14.85
2019-01-30T08:42:11.393Z,20.37
2019-01-30T08:43:12.707Z,14.18
2019-01-30T08:44:13.728Z,14.63
2019-01-30T08:45:20.948Z,14.13
2019-01-30T08:46:21.951Z,15.60
2019-01-30T08:47:22.969Z,15.90
2019-01-30T08:48:24.171Z,12.40
2019-01-30T08:49:25.193Z,12.47
2019-01-30T08:50:26.500Z,14.68
2019-01-30T08:51:27.523Z,12.70
2019-01-30T08:52:28.736Z,12.88
2019-01-30T08:53:29.747Z,10.03
2019-01-30T08:54:30.772Z,13.55
2019-01-30T08:55:31.827Z,10.38
2019-01-30T08:56:38.721Z,13.35
2019-01-30T08:57:35.841Z,15.28
2019-01-30T08:58:36.979Z,10.43
2019-01-30T08:59:37.999Z,13.13
2019-01-30T09:00:39.312Z,10.68
2019-01-30T09:01:40.316Z,12.28
2019-01-30T09:02:41.333Z,12.60
2019-01-30T09:03:42.705Z,14.95
2019-01-30T09:05:04.913Z,14.38
2019-01-30T09:06:05.941Z,15.50
2019-01-30T09:07:06.952Z,11.28
2019-01-30T09:08:08.851Z,13.78
2019-01-30T09:09:10.228Z,15.23
2019-01-30T09:10:14.176Z,14.30
2019-01-30T09:11:15.367Z,15.50
2019-01-30T09:12:16.483Z,13.72
2019-01-30T09:13:17.600Z,12.45
2019-01-30T09:14:18.629Z,12.45
2019-01-30T09:15:21.456Z,14.18
2019-01-30T09:16:22.501Z,15.43
2019-01-30T09:17:23.520Z,13.55
2019-01-30T09:18:24.575Z,13.62
2019-01-30T09:19:25.593Z,12.85
2019-01-30T09:20:26.760Z,13.22
2019-01-30T09:21:27.784Z,13.00
2019-01-30T09:22:28.820Z,14.60
2019-01-30T09:23:29.839Z,13.00
2019-01-30T09:24:30.864Z,14.33
2019-01-30T09:25:31.883Z,15.45
2019-01-30T09:26:32.892Z,13.80
2019-01-30T09:27:33.960Z,16.45
2019-01-30T09:28:34.963Z,11.22
2019-01-30T09:29:35.992Z,14.93
2019-01-30T09:30:37.308Z,11.75
2019-01-30T09:31:38.593Z,11.25
2019-01-30T09:32:39.612Z,12.95
2019-01-30T09:33:40.670Z,11.53
2019-01-30T09:34:41.927Z,15.98
2019-01-30T09:35:43.025Z,11.30
2019-01-30T09:36:44.035Z,13.22
2019-01-30T09:37:45.354Z,10.68
2019-01-30T09:38:46.378Z,11.38
2019-01-30T09:39:48.685Z,13.60
2019-01-30T09:40:49.863Z,10.82
2019-01-30T09:41:50.932Z,13.30
2019-01-30T09:42:52.052Z,11.48
2019-01-30T09:43:53.133Z,13.88
2019-01-30T09:44:54.944Z,11.03
2019-01-30T09:45:56.060Z,14.13
2019-01-30T09:46:57.080Z,12.37
2019-01-30T09:47:58.095Z,14.93
2019-01-30T09:48:59.116Z,15.25
2019-01-30T09:50:00.228Z,11.80
2019-01-30T09:51:01.263Z,9.90
2019-01-30T09:52:02.586Z,13.95
2019-01-30T09:53:03.992Z,10.85
2019-01-30T09:54:05.012Z,11.08
2019-01-30T09:55:08.897Z,13.72
2019-01-30T09:56:09.986Z,10.63
2019-01-30T09:57:11.022Z,14.00
2019-01-30T09:58:12.129Z,11.35
2019-01-30T09:59:13.136Z,14.78
2019-01-30T10:00:24.284Z,10.58
2019-01-30T10:01:25.304Z,12.00
2019-01-30T10:02:26.316Z,11.40
2019-01-30T10:03:36.150Z,13.25
2019-01-30T10:04:32.533Z,12.98
2019-01-30T10:05:37.449Z,12.68
2019-01-30T10:06:39.551Z,11.63
2019-01-30T10:07:40.852Z,8.60
2019-01-30T10:08:42.136Z,10.53
2019-01-30T10:09:43.441Z,10.10
2019-01-30T10:10:44.571Z,11.85
2019-01-30T10:11:45.584Z,11.97
2019-01-30T10:12:46.608Z,11.03
2019-01-30T10:13:47.620Z,10.72
2019-01-30T10:14:48.638Z,10.20
2019-01-30T10:15:49.660Z,9.38
2019-01-30T10:16:50.708Z,12.70
2019-01-30T10:17:51.773Z,9.18
2019-01-30T10:18:52.843Z,10.38
2019-01-30T10:19:53.864Z,10.48
2019-01-30T10:20:54.908Z,10.35
2019-01-30T10:21:55.923Z,7.83
2019-01-30T10:22:57.074Z,10.70
2019-01-30T10:23:58.123Z,8.80
2019-01-30T10:24:59.130Z,11.93
2019-01-30T10:26:00.149Z,10.70
2019-01-30T10:27:01.167Z,11.00
2019-01-30T10:28:03.187Z,10.80
2019-01-30T10:29:04.471Z,11.03
2019-01-30T10:30:12.185Z,9.38
2019-01-30T10:31:13.245Z,10.25
2019-01-30T10:32:14.359Z,8.50
2019-01-30T10:33:15.383Z,13.53
2019-01-30T10:34:16.797Z,8.73
2019-01-30T10:35:18.110Z,11.33
2019-01-30T10:36:19.237Z,12.03
2019-01-30T10:37:20.248Z,7.85
2019-01-30T10:38:21.337Z,10.43
2019-01-30T10:39:22.452Z,8.55
2019-01-30T10:40:23.584Z,7.87
2019-01-30T10:41:24.606Z,13.90
2019-01-30T10:42:25.617Z,9.75
2019-01-30T10:43:26.624Z,11.93
2019-01-30T10:44:27.638Z,9.30
2019-01-30T10:45:28.648Z,10.53
2019-01-30T10:46:29.667Z,10.68
2019-01-30T10:47:30.676Z,9.93
2019-01-30T10:48:31.704Z,8.98
2019-01-30T10:49:32.762Z,9.90
2019-01-30T10:50:33.844Z,8.15
2019-01-30T10:51:35.133Z,9.95
2019-01-30T10:52:36.209Z,10.03
2019-01-30T10:53:37.231Z,8.55
2019-01-30T10:54:38.528Z,10.68
2019-01-30T10:55:39.543Z,9.35
2019-01-30T10:56:40.604Z,9.75
2019-01-30T10:57:43.221Z,7.20
2019-01-30T10:58:44.250Z,9.88
2019-01-30T10:59:45.305Z,10.18
2019-01-30T11:00:48.443Z,6.85
2019-01-30T11:01:49.482Z,7.95
2019-01-30T11:02:50.516Z,10.05
2019-01-30T11:03:57.300Z,10.60
2019-01-30T11:04:54.543Z,9.70
2019-01-30T11:05:55.554Z,10.90
2019-01-30T11:06:56.607Z,9.28
2019-01-30T11:07:57.695Z,10.78
2019-01-30T11:08:58.737Z,8.70
2019-01-30T11:09:59.744Z,11.45
2019-01-30T11:11:07.527Z,8.78
2019-01-30T11:12:03.689Z,8.93
2019-01-30T11:13:05.608Z,10.78
2019-01-30T11:14:06.820Z,10.15
2019-01-30T11:15:11.568Z,8.88
2019-01-30T11:16:15.730Z,10.82
2019-01-30T11:17:16.805Z,7.60
2019-01-30T11:18:17.876Z,10.43
2019-01-30T11:19:18.894Z,9.35
2019-01-30T11:20:21.907Z,9.73
2019-01-30T11:21:23.252Z,11.33
2019-01-30T11:22:24.267Z,8.28
2019-01-30T11:23:25.711Z,11.38
2019-01-30T11:24:27.360Z,11.15
2019-01-30T11:25:34.348Z,12.90
2019-01-30T11:26:36.568Z,8.50
2019-01-30T11:27:37.761Z,10.68
2019-01-30T11:28:38.911Z,9.18
2019-01-30T11:29:39.958Z,9.93
2019-01-30T11:30:40.994Z,7.55
2019-01-30T11:31:42.119Z,8.58
2019-01-30T11:32:43.229Z,9.63
2019-01-30T11:33:44.253Z,9.88
2019-01-30T11:34:45.268Z,9.63
2019-01-30T11:35:46.290Z,7.17
2019-01-30T11:36:47.308Z,9.88
2019-01-30T11:37:48.329Z,7.60
2019-01-30T11:38:49.341Z,12.25
2019-01-30T11:39:50.364Z,8.23
2019-01-30T11:40:51.677Z,10.40
2019-01-30T11:41:52.749Z,9.95
2019-01-30T11:42:53.855Z,8.73
2019-01-30T11:43:54.947Z,11.08
2019-01-30T11:44:55.965Z,8.60
2019-01-30T11:45:56.980Z,10.70
2019-01-30T11:46:57.999Z,8.40
2019-01-30T11:47:59.219Z,11.22
2019-01-30T11:49:00.235Z,9.23
2019-01-30T11:50:01.450Z,9.25
2019-01-30T11:51:02.561Z,11.95
2019-01-30T11:52:03.784Z,8.13
2019-01-30T11:53:05.000Z,11.33
2019-01-30T11:54:06.017Z,9.93
2019-01-30T11:55:10.135Z,10.00
2019-01-30T11:56:11.165Z,10.63
2019-01-30T11:57:12.196Z,8.63
2019-01-30T11:58:13.203Z,10.80
2019-01-30T11:59:14.251Z,7.70
2019-01-30T12:00:28.884Z,11.03
2019-01-30T12:01:29.903Z,11.95
2019-01-30T12:02:30.918Z,8.10
2019-01-30T12:03:31.926Z,11.20
2019-01-30T12:04:33.071Z,8.28
2019-01-30T12:05:34.471Z,10.70
2019-01-30T12:06:35.506Z,9.75
2019-01-30T12:07:36.571Z,7.67
2019-01-30T12:08:37.760Z,11.08
2019-01-30T12:09:38.788Z,8.25
2019-01-30T12:10:39.827Z,12.05
2019-01-30T12:11:40.849Z,8.20
2019-01-30T12:12:42.067Z,9.93
2019-01-30T12:13:43.132Z,10.50
2019-01-30T12:14:44.159Z,7.55
2019-01-30T12:15:45.180Z,9.08
2019-01-30T12:16:46.187Z,7.30
2019-01-30T12:17:47.308Z,10.23
2019-01-30T12:18:48.319Z,8.03
2019-01-30T12:19:49.346Z,8.88
2019-01-30T12:20:51.948Z,8.05
2019-01-30T12:21:53.172Z,11.70
2019-01-30T12:22:54.196Z,11.63
2019-01-30T12:23:55.388Z,8.55
2019-01-30T12:24:56.407Z,9.58
2019-01-30T12:25:57.432Z,8.20
2019-01-30T12:26:58.451Z,10.90
2019-01-30T12:27:59.480Z,10.40
2019-01-30T12:29:00.515Z,8.33
2019-01-30T12:30:02.848Z,8.88
2019-01-30T12:31:03.862Z,10.40
2019-01-30T12:32:04.989Z,9.33
2019-01-30T12:33:06.104Z,11.00
2019-01-30T12:34:07.119Z,10.35
2019-01-30T12:35:08.432Z,7.87
2019-01-30T12:36:09.442Z,10.60
2019-01-30T12:37:10.471Z,8.60
2019-01-30T12:38:11.557Z,10.55
2019-01-30T12:39:12.616Z,8.35
2019-01-30T12:40:18.283Z,12.55
2019-01-30T12:41:19.403Z,9.83
2019-01-30T12:42:20.436Z,7.80
2019-01-30T12:43:21.651Z,10.00
2019-01-30T12:44:22.861Z,8.60
2019-01-30T12:45:26.472Z,8.45
2019-01-30T12:46:27.481Z,10.63
2019-01-30T12:47:28.492Z,10.80
2019-01-30T12:48:29.515Z,10.18
2019-01-30T12:49:30.549Z,9.03
2019-01-30T12:50:31.739Z,9.25
2019-01-30T12:51:32.729Z,8.05
2019-01-30T12:52:33.748Z,11.90
2019-01-30T12:53:35.005Z,10.90
2019-01-30T12:54:36.012Z,12.73
2019-01-30T12:55:37.044Z,9.80
2019-01-30T12:56:38.049Z,12.78
2019-01-30T12:57:39.164Z,9.15
2019-01-30T12:58:40.184Z,13.48
2019-01-30T12:59:41.200Z,14.25
2019-01-30T13:00:43.040Z,12.15
2019-01-30T13:01:44.065Z,10.82
2019-01-30T13:02:45.180Z,11.90
2019-01-30T13:03:46.223Z,7.25
2019-01-30T13:04:47.264Z,10.58
2019-01-30T13:05:48.567Z,6.60
2019-01-30T13:06:49.579Z,8.38
2019-01-30T13:07:50.798Z,9.85
2019-01-30T13:08:51.833Z,7.58
2019-01-30T13:09:52.852Z,8.40
2019-01-30T13:10:53.956Z,7.80
2019-01-30T13:11:54.984Z,11.03
2019-01-30T13:12:55.996Z,8.20
2019-01-30T13:13:57.021Z,10.28